Time;durP1;ratioP1;P1;durP2;ratioP2;P2;SDS_P1;SDS_P2;PMS_P1;PMS_P2;Temp;Humidity;BMP_temperature;BMP_pressure;BME280_temperature;BME280_humidity;BME280_pressure;Samples;Min_cycle;Max_cycle;Signal;HPM_P1;HPM_P2
2022/08/02 00:01:28;;;;;;;8.60;2.77;;;14.90;99.90;;;;;;5136776;27;20050;-73
2022/08/02 00:03:54;;;;;;;5.80;2.47;;;14.90;99.90;;;;;;5136040;27;20046;-73
2022/08/02 00:06:20;;;;;;;10.73;2.33;;;14.90;99.90;;;;;;5136727;27;20046;-73
2022/08/02 00:08:45;;;;;;;7.57;2.40;;;14.90;99.90;;;;;;5136909;27;20065;-73
2022/08/02 00:11:11;;;;;;;10.17;3.00;;;14.90;99.90;;;;;;5136615;27;20100;-73
2022/08/02 00:13:37;;;;;;;7.63;2.50;;;14.80;99.90;;;;;;5135749;27;20479;-73
2022/08/02 00:16:03;;;;;;;11.23;2.40;;;14.80;99.90;;;;;;5135785;27;20047;-73
2022/08/02 00:18:29;;;;;;;11.00;3.13;;;14.70;99.90;;;;;;5157207;27;20050;-73
2022/08/02 00:20:55;;;;;;;7.77;2.30;;;14.70;99.90;;;;;;5157388;27;20751;-73
2022/08/02 00:23:21;;;;;;;8.33;2.17;;;14.70;99.90;;;;;;5157081;27;20042;-73
2022/08/02 00:25:47;;;;;;;10.70;3.30;;;14.70;99.90;;;;;;5157340;27;20133;-73
2022/08/02 00:28:12;;;;;;;8.90;2.77;;;14.60;99.90;;;;;;5156956;27;20043;-77
2022/08/02 00:30:39;;;;;;;8.30;2.57;;;14.60;99.90;;;;;;5157569;27;20053;-73
2022/08/02 00:33:04;;;;;;;14.70;4.17;;;14.60;99.90;;;;;;5157271;27;20130;-73
2022/08/02 00:35:36;;;;;;;9.80;2.57;;;14.60;99.90;;;;;;5156829;27;20312;-73
2022/08/02 00:38:03;;;;;;;12.10;3.00;;;14.60;99.90;;;;;;5157067;27;20046;-73
2022/08/02 00:40:29;;;;;;;9.00;3.03;;;14.60;99.90;;;;;;5156784;27;20275;-73
2022/08/02 00:43:05;;;;;;;10.23;3.03;;;14.60;99.90;;;;;;5157061;27;20268;-73
2022/08/02 00:45:32;;;;;;;10.60;3.00;;;14.40;99.90;;;;;;5156660;27;20371;-73
2022/08/02 00:47:58;;;;;;;9.20;2.73;;;14.40;99.90;;;;;;5156876;27;20276;-73
2022/08/02 00:50:24;;;;;;;7.87;3.03;;;14.40;99.90;;;;;;5156566;27;20284;-73
2022/08/02 00:52:49;;;;;;;10.50;3.20;;;14.40;99.90;;;;;;5157015;27;20333;-73
2022/08/02 00:55:15;;;;;;;6.80;2.70;;;14.40;99.90;;;;;;5156794;27;20092;-73
2022/08/02 00:57:41;;;;;;;11.07;3.57;;;14.30;99.90;;;;;;5156762;27;20447;-73
2022/08/02 01:00:07;;;;;;;10.17;3.07;;;14.30;99.90;;;;;;5138374;27;20129;-73
2022/08/02 01:02:33;;;;;;;10.53;3.13;;;14.20;99.90;;;;;;5156392;27;20042;-73
2022/08/02 01:04:59;;;;;;;11.63;3.13;;;14.20;99.90;;;;;;5156644;27;20298;-72
2022/08/02 01:07:25;;;;;;;14.33;2.93;;;14.10;99.90;;;;;;5156280;27;20496;-73
2022/08/02 01:09:50;;;;;;;8.37;2.63;;;14.10;99.90;;;;;;5155480;27;20446;-73
2022/08/02 01:12:16;;;;;;;15.97;3.53;;;14.10;99.90;;;;;;5138193;27;20280;-73
2022/08/02 01:14:45;;;;;;;11.47;3.40;;;14.30;99.90;;;;;;5156118;27;20084;-73
2022/08/02 01:17:15;;;;;;;9.03;2.90;;;14.10;99.90;;;;;;5156326;27;20046;-73
2022/08/02 01:20:18;;;;;;;9.50;3.10;;;14.00;99.90;;;;;;5156110;27;20291;-73
2022/08/02 01:22:50;;;;;;;10.83;3.23;;;13.90;99.90;;;;;;5137463;27;20283;-73
2022/08/02 01:25:51;;;;;;;10.90;2.67;;;13.90;99.90;;;;;;5137929;27;20764;-73
2022/08/02 01:28:22;;;;;;;10.13;3.13;;;14.00;99.90;;;;;;5156129;27;20752;-73
2022/08/02 01:30:54;;;;;;;9.43;2.80;;;14.00;99.90;;;;;;5156225;27;20284;-73
2022/08/02 01:33:22;;;;;;;8.37;3.07;;;14.00;99.90;;;;;;5156086;27;20341;-73
2022/08/02 01:35:53;;;;;;;10.90;2.80;;;13.90;99.90;;;;;;5137646;27;20290;-74
2022/08/02 01:38:32;;;;;;;10.17;2.73;;;13.90;99.90;;;;;;5156128;27;20635;-73
2022/08/02 01:41:01;;;;;;;10.20;2.90;;;13.90;99.90;;;;;;5137699;27;20279;-73
2022/08/02 01:43:29;;;;;;;11.50;3.13;;;13.80;99.90;;;;;;5155644;27;20280;-74
2022/08/02 01:45:56;;;;;;;10.40;2.93;;;13.80;99.90;;;;;;5155752;27;20783;-73
2022/08/02 01:48:25;;;;;;;15.60;3.00;;;13.80;99.90;;;;;;5137368;27;20781;-73
2022/08/02 01:50:52;;;;;;;11.57;2.80;;;13.80;99.90;;;;;;5155669;27;20312;-73
2022/08/02 01:53:20;;;;;;;10.77;2.93;;;13.90;99.90;;;;;;5155804;27;20707;-73
2022/08/02 01:55:50;;;;;;;14.90;4.03;;;13.80;99.90;;;;;;5155216;27;20287;-73
2022/08/02 01:58:19;;;;;;;12.57;2.97;;;13.90;99.90;;;;;;5155416;27;20809;-73
2022/08/02 02:00:46;;;;;;;13.00;3.93;;;13.80;99.90;;;;;;5154843;27;20276;-74
2022/08/02 02:03:17;;;;;;;12.00;3.17;;;13.80;99.90;;;;;;5155561;27;20367;-74
2022/08/02 02:05:45;;;;;;;11.63;2.87;;;13.80;99.90;;;;;;5155210;27;20272;-73
2022/08/02 02:08:12;;;;;;;11.33;3.27;;;13.90;99.90;;;;;;5155363;27;20276;-73
2022/08/02 02:10:39;;;;;;;9.10;2.87;;;13.80;99.90;;;;;;5136556;27;20312;-73
2022/08/02 02:13:13;;;;;;;10.73;2.90;;;13.80;99.90;;;;;;5137272;27;20332;-73
2022/08/02 02:15:43;;;;;;;11.60;3.77;;;13.80;99.90;;;;;;5154953;27;20287;-73
2022/08/02 02:18:11;;;;;;;13.20;3.03;;;13.80;99.90;;;;;;5154778;27;20295;-73
2022/08/02 02:20:37;;;;;;;11.43;2.97;;;13.80;99.90;;;;;;5154700;27;20279;-73
2022/08/02 02:23:03;;;;;;;10.43;2.97;;;13.70;99.90;;;;;;5155122;27;20280;-73
2022/08/02 02:25:29;;;;;;;9.13;3.40;;;13.80;99.90;;;;;;5154945;27;20268;-76
2022/08/02 02:28:02;;;;;;;10.23;2.93;;;13.70;99.90;;;;;;5155207;27;20333;-73
2022/08/02 02:30:30;;;;;;;8.27;2.70;;;13.70;99.90;;;;;;5155070;27;20291;-73
2022/08/02 02:33:00;;;;;;;10.07;3.37;;;13.70;99.90;;;;;;5155145;27;20268;-73
2022/08/02 02:35:35;;;;;;;11.23;2.60;;;13.70;99.90;;;;;;5154998;27;20319;-73
2022/08/02 02:38:03;;;;;;;9.50;2.80;;;13.70;99.90;;;;;;5154869;27;20288;-73
2022/08/02 02:40:30;;;;;;;11.67;2.90;;;13.70;99.90;;;;;;5154877;27;20497;-73
2022/08/02 02:42:59;;;;;;;8.93;3.30;;;13.70;99.90;;;;;;5154504;27;20295;-73
2022/08/02 02:45:25;;;;;;;10.20;3.23;;;13.80;99.90;;;;;;5154681;27;20280;-73
2022/08/02 02:47:53;;;;;;;9.23;2.90;;;13.80;99.90;;;;;;5154562;27;21087;-73
2022/08/02 02:50:20;;;;;;;11.13;2.53;;;13.70;99.90;;;;;;5154771;27;20342;-73
2022/08/02 02:52:47;;;;;;;11.93;3.80;;;13.70;99.90;;;;;;5136152;27;20711;-73
2022/08/02 02:55:14;;;;;;;8.23;3.13;;;13.80;99.90;;;;;;5154659;27;20279;-73
2022/08/02 02:57:40;;;;;;;13.40;3.63;;;13.80;99.90;;;;;;5153935;27;20310;-73
2022/08/02 03:00:10;;;;;;;11.33;2.80;;;13.80;99.90;;;;;;5154269;27;20767;-73
2022/08/02 03:02:38;;;;;;;5.77;2.67;;;13.80;99.90;;;;;;5154338;27;20365;-74
2022/08/02 03:05:06;;;;;;;11.83;4.10;;;13.80;99.90;;;;;;5154481;27;20279;-73
2022/08/02 03:07:33;;;;;;;7.23;3.03;;;13.80;99.90;;;;;;5154600;27;20271;-73
2022/08/02 03:09:59;;;;;;;9.13;2.93;;;13.80;99.90;;;;;;5154193;27;20328;-73
2022/08/02 03:12:26;;;;;;;11.63;3.30;;;13.80;99.90;;;;;;5154596;27;20280;-73
2022/08/02 03:14:52;;;;;;;10.93;3.20;;;13.80;99.90;;;;;;5154286;27;20327;-73
2022/08/02 03:17:19;;;;;;;11.87;3.10;;;13.70;99.90;;;;;;5154472;27;20308;-74
2022/08/02 03:19:45;;;;;;;8.10;2.87;;;13.70;99.90;;;;;;5154127;27;20639;-74
2022/08/02 03:22:11;;;;;;;11.70;2.83;;;13.70;99.90;;;;;;5154341;27;20316;-74
2022/08/02 03:24:37;;;;;;;9.80;3.47;;;13.70;99.90;;;;;;5154308;27;20283;-75
2022/08/02 03:27:03;;;;;;;10.30;3.50;;;13.70;99.90;;;;;;5154245;27;20730;-73
2022/08/02 03:29:28;;;;;;;13.83;3.57;;;13.80;99.90;;;;;;5154235;27;20276;-73
2022/08/02 03:31:55;;;;;;;9.17;3.03;;;13.80;99.90;;;;;;5153910;27;20126;-73
2022/08/02 03:34:22;;;;;;;6.90;3.00;;;13.90;99.90;;;;;;5139491;27;20099;-73
2022/08/02 03:36:51;;;;;;;10.00;3.20;;;13.80;99.90;;;;;;5158014;27;20629;-73
2022/08/02 03:39:18;;;;;;;11.00;3.50;;;13.80;99.90;;;;;;5158277;27;20280;-73
2022/08/02 03:41:45;;;;;;;10.07;3.13;;;13.70;99.90;;;;;;5158052;27;20372;-73
2022/08/02 03:44:12;;;;;;;11.73;3.50;;;13.70;99.90;;;;;;5158131;27;20368;-73
2022/08/02 03:46:40;;;;;;;12.40;3.50;;;13.70;99.90;;;;;;5158027;27;20288;-73
2022/08/02 03:49:07;;;;;;;10.93;3.40;;;13.70;99.90;;;;;;5158281;27;20280;-73
2022/08/02 03:51:34;;;;;;;8.60;3.73;;;13.80;99.90;;;;;;5158004;27;20283;-73
2022/08/02 03:54:01;;;;;;;14.10;3.90;;;13.80;99.90;;;;;;5139439;27;20348;-73
2022/08/02 03:56:28;;;;;;;16.63;3.80;;;13.80;99.90;;;;;;5157502;27;20775;-73
2022/08/02 03:59:11;;;;;;;10.97;4.13;;;13.80;99.90;;;;;;5157279;27;20878;-73
2022/08/02 04:01:37;;;;;;;11.03;3.57;;;13.80;99.90;;;;;;5157803;27;20280;-73
2022/08/02 04:04:04;;;;;;;8.33;3.00;;;13.80;99.90;;;;;;5157544;27;20584;-73
2022/08/02 04:06:30;;;;;;;10.10;3.60;;;13.70;99.90;;;;;;5157730;27;20272;-73
2022/08/02 04:08:56;;;;;;;11.27;3.40;;;13.70;99.90;;;;;;5139164;27;20288;-73
2022/08/02 04:11:30;;;;;;;8.93;3.40;;;13.70;99.90;;;;;;5157335;27;20079;-73
2022/08/02 04:14:05;;;;;;;12.82;3.53;;;13.70;99.90;;;;;;5157462;27;20038;-73
2022/08/02 04:16:43;;;;;;;10.25;3.60;;;13.70;99.90;;;;;;5157454;27;20047;-73
2022/08/02 04:19:13;;;;;;;11.20;3.40;;;13.70;99.90;;;;;;5157524;27;20473;-73
2022/08/02 04:21:40;;;;;;;11.03;3.77;;;13.80;99.90;;;;;;5157562;27;20336;-73
2022/08/02 04:24:10;;;;;;;7.77;2.90;;;13.80;99.90;;;;;;5157187;27;20311;-73
2022/08/02 04:26:36;;;;;;;12.77;3.70;;;13.80;99.90;;;;;;5157319;27;20662;-73
2022/08/02 04:29:04;;;;;;;9.67;4.30;;;13.90;99.90;;;;;;5138881;27;20635;-73
2022/08/02 04:31:30;;;;;;;11.33;3.40;;;13.90;99.90;;;;;;5157333;27;20283;-73
2022/08/02 04:33:56;;;;;;;10.50;3.60;;;13.90;99.90;;;;;;5156951;27;20321;-73
2022/08/02 04:36:22;;;;;;;12.00;3.70;;;14.00;99.90;;;;;;5157072;27;20292;-73
2022/08/02 04:38:49;;;;;;;10.83;3.73;;;14.00;99.90;;;;;;5138630;27;20078;-74
2022/08/02 04:41:15;;;;;;;12.13;3.57;;;14.10;99.90;;;;;;5139029;27;20047;-73
2022/08/02 04:43:40;;;;;;;9.57;3.83;;;14.10;99.90;;;;;;5157017;27;20268;-73
2022/08/02 04:46:06;;;;;;;9.33;3.70;;;14.10;99.90;;;;;;5156742;27;20056;-73
2022/08/02 04:48:32;;;;;;;9.03;4.07;;;14.10;99.90;;;;;;5157070;27;20043;-73
2022/08/02 04:50:58;;;;;;;11.73;3.60;;;14.10;99.90;;;;;;5156656;27;20474;-73
2022/08/02 04:53:24;;;;;;;11.60;3.60;;;14.10;99.90;;;;;;5156863;27;20522;-73
2022/08/02 04:55:50;;;;;;;10.00;3.20;;;14.20;99.90;;;;;;5156543;27;20280;-74
2022/08/02 04:58:16;;;;;;;8.97;3.00;;;14.20;99.90;;;;;;5157013;27;20534;-73
2022/08/02 05:00:41;;;;;;;9.00;3.63;;;14.30;99.90;;;;;;5156473;27;20483;-73
2022/08/02 05:03:07;;;;;;;10.37;3.77;;;14.50;99.90;;;;;;5156369;27;20283;-73
2022/08/02 05:05:33;;;;;;;8.30;3.17;;;14.60;99.90;;;;;;5156569;27;20118;-73
2022/08/02 05:07:59;;;;;;;13.47;3.50;;;14.70;99.90;;;;;;5156314;27;20754;-73
2022/08/02 05:10:24;;;;;;;10.43;3.27;;;14.90;99.90;;;;;;5156532;27;20047;-73
2022/08/02 05:12:51;;;;;;;10.73;3.27;;;15.00;99.90;;;;;;5137871;27;20082;-77
2022/08/02 05:15:17;;;;;;;10.23;2.70;;;15.10;99.90;;;;;;5156722;27;20454;-73
2022/08/02 05:17:47;;;;;;;12.97;3.77;;;15.30;99.90;;;;;;5156303;27;20304;-73
2022/08/02 05:20:13;;;;;;;9.67;2.93;;;15.40;99.90;;;;;;5137644;27;20292;-73
2022/08/02 05:22:40;;;;;;;10.00;2.93;;;15.40;99.90;;;;;;5156308;27;20288;-73
2022/08/02 05:25:06;;;;;;;13.00;2.80;;;15.50;99.90;;;;;;5155725;27;20039;-74
2022/08/02 05:27:32;;;;;;;11.23;3.10;;;15.50;99.90;;;;;;5156025;27;20281;-74
2022/08/02 05:29:58;;;;;;;8.63;2.80;;;15.50;99.90;;;;;;5155961;27;20280;-75
2022/08/02 05:32:24;;;;;;;10.43;3.27;;;15.50;99.90;;;;;;5156067;27;20137;-74
2022/08/02 05:34:50;;;;;;;9.57;3.03;;;15.60;99.90;;;;;;5155988;27;20292;-74
2022/08/02 05:37:16;;;;;;;13.93;3.13;;;15.70;99.90;;;;;;5155625;27;20291;-73
2022/08/02 05:39:42;;;;;;;10.60;3.00;;;15.80;99.90;;;;;;5155869;27;20042;-73
2022/08/02 05:42:08;;;;;;;9.43;2.93;;;15.90;99.90;;;;;;5128164;27;20386;-80
2022/08/02 05:44:33;;;;;;;13.17;3.30;;;16.00;99.90;;;;;;5118223;27;20039;-72
2022/08/02 05:46:59;;;;;;;9.90;2.70;;;16.20;99.90;;;;;;5134772;27;20122;-73
2022/08/02 05:49:25;;;;;;;12.73;3.53;;;16.30;99.90;;;;;;5116782;27;20043;-73
2022/08/02 05:52:09;;;;;;;8.80;3.00;;;16.50;99.90;;;;;;5135039;27;20488;-72
2022/08/02 05:54:42;;;;;;;10.23;2.77;;;16.80;99.90;;;;;;5134989;27;20046;-72
2022/08/02 05:57:32;;;;;;;7.00;2.30;;;17.20;99.90;;;;;;5134028;27;20482;-73
2022/08/02 06:00:13;;;;;;;9.60;2.80;;;18.50;99.90;;;;;;5134510;27;20130;-73
2022/08/02 06:02:42;;;;;;;10.77;2.70;;;19.90;99.90;;;;;;5134885;27;20463;-71
2022/08/02 06:05:14;;;;;;;8.83;2.60;;;21.10;99.90;;;;;;5134136;27;20503;-72
2022/08/02 06:07:42;;;;;;;7.47;2.90;;;22.10;99.90;;;;;;5134658;27;20053;-72
2022/08/02 06:10:12;;;;;;;8.37;2.40;;;22.80;95.50;;;;;;5134273;27;20126;-73
2022/08/02 06:13:09;;;;;;;9.33;3.03;;;23.40;97.00;;;;;;5116425;27;20051;-79
2022/08/02 06:15:36;;;;;;;8.40;2.90;;;23.40;89.40;;;;;;5116776;27;20049;-73
2022/08/02 06:18:03;;;;;;;7.17;2.40;;;;;;;;;;5134208;27;20524;-75
2022/08/02 06:20:36;;;;;;;8.57;2.60;;;;;;;;;;5133678;27;20055;-75
2022/08/02 06:23:06;;;;;;;9.83;2.67;;;22.50;85.10;;;;;;5133938;27;20058;-75
2022/08/02 06:25:35;;;;;;;7.17;2.37;;;22.80;90.00;;;;;;5134538;27;20050;-74
2022/08/02 06:28:03;;;;;;;8.37;2.47;;;;;;;;;;5134287;27;20050;-74
2022/08/02 06:30:29;;;;;;;9.60;2.87;;;23.10;83.70;;;;;;5134450;27;20130;-74
2022/08/02 06:32:56;;;;;;;6.83;2.47;;;;;;;;;;5134391;27;20046;-74
2022/08/02 06:35:24;;;;;;;6.67;2.60;;;;;;;;;;5134151;27;20139;-74
2022/08/02 06:38:01;;;;;;;9.83;2.57;;;22.80;81.10;;;;;;5115899;27;20043;-73
2022/08/02 06:40:47;;;;;;;6.63;2.60;;;22.90;82.20;;;;;;5134745;27;20483;-74
2022/08/02 06:43:31;;;;;;;7.83;2.70;;;23.40;78.20;;;;;;5134135;27;20043;-74
2022/08/02 06:45:57;;;;;;;5.77;2.27;;;24.80;71.90;;;;;;5134226;27;20130;-74
2022/08/02 06:48:23;;;;;;;9.83;2.10;;;25.40;62.40;;;;;;5133917;27;20152;-74
2022/08/02 06:50:48;;;;;;;7.50;2.33;;;25.50;68.50;;;;;;5134656;27;20047;-74
2022/08/02 06:53:14;;;;;;;6.03;2.30;;;26.10;66.10;;;;;;5133941;27;20453;-74
2022/08/02 06:55:40;;;;;;;8.43;2.57;;;26.70;63.50;;;;;;5116066;27;20421;-74
2022/08/02 06:58:06;;;;;;;10.57;2.47;;;;;;;;;;5133716;27;20047;-75
2022/08/02 07:00:32;;;;;;;5.20;1.90;;;;;;;;;;5133999;28;20078;-74
2022/08/02 07:02:58;;;;;;;6.53;1.90;;;27.00;53.30;;;;;;5134113;28;20079;-74
2022/08/02 07:05:23;;;;;;;6.07;1.80;;;26.40;56.10;;;;;;5133751;28;20503;-74
2022/08/02 07:07:49;;;;;;;5.70;1.90;;;25.90;57.10;;;;;;5135077;27;20043;-74
2022/08/02 07:10:15;;;;;;;7.20;2.40;;;25.40;57.10;;;;;;5138081;27;20035;-74
2022/08/02 07:12:41;;;;;;;6.97;1.70;;;25.10;58.20;;;;;;5138153;27;20505;-74
2022/08/02 07:15:08;;;;;;;7.87;2.03;;;25.40;58.80;;;;;;5119681;27;20047;-74
2022/08/02 07:17:35;;;;;;;7.23;2.03;;;26.10;58.30;;;;;;5137928;27;20080;-74
2022/08/02 07:20:00;;;;;;;8.10;1.97;;;26.70;57.00;;;;;;5137963;27;20043;-74
2022/08/02 07:22:27;;;;;;;4.93;1.87;;;27.60;55.00;;;;;;5137715;27;20146;-74
2022/08/02 07:24:58;;;;;;;6.33;2.00;;;28.40;53.10;;;;;;5137898;27;20085;-74
2022/08/02 07:27:24;;;;;;;7.03;1.97;;;28.80;51.30;;;;;;5137739;27;20047;-75
2022/08/02 07:29:50;;;;;;;6.30;2.00;;;29.20;50.70;;;;;;5137852;27;20086;-74
2022/08/02 07:32:21;;;;;;;6.87;1.70;;;;;;;;;;5137581;27;20054;-75
2022/08/02 07:34:47;;;;;;;6.00;2.08;;;;;;;;;;5119203;27;20509;-74
2022/08/02 07:37:13;;;;;;;6.35;1.98;;;29.70;47.00;;;;;;5118901;27;20481;-75
2022/08/02 07:39:39;;;;;;;5.47;1.77;;;;;;;;;;5138307;27;20060;-75
2022/08/02 07:42:05;;;;;;;6.53;2.28;;;;;;;;;;5137678;27;20055;-75
2022/08/02 07:44:33;;;;;;;6.13;2.17;;;30.60;44.00;;;;;;5137441;27;20053;-75
2022/08/02 07:47:03;;;;;;;5.85;2.22;;;30.80;44.70;;;;;;5137785;27;20058;-73
2022/08/02 07:49:29;;;;;;;6.57;1.80;;;30.60;44.20;;;;;;5137347;27;20055;-75
2022/08/02 07:51:56;;;;;;;5.13;1.75;;;30.90;44.80;;;;;;5137593;27;20050;-75
2022/08/02 07:54:22;;;;;;;5.90;2.30;;;30.90;43.90;;;;;;5119134;27;20051;-75
2022/08/02 07:56:48;;;;;;;5.03;2.10;;;30.80;43.20;;;;;;5136916;27;20390;-73
2022/08/02 07:59:13;;;;;;;4.63;2.05;;;30.50;44.50;;;;;;5137415;27;20047;-73
2022/08/02 08:01:40;;;;;;;4.57;1.88;;;30.30;43.90;;;;;;5119365;27;20130;-73
2022/08/02 08:04:07;;;;;;;6.63;2.17;;;30.30;44.10;;;;;;5137404;27;20043;-73
2022/08/02 08:06:33;;;;;;;4.25;1.70;;;30.20;43.80;;;;;;5137022;27;20035;-73
2022/08/02 08:08:58;;;;;;;5.15;1.85;;;30.10;44.30;;;;;;5137132;27;20075;-73
2022/08/02 08:11:24;;;;;;;6.78;1.95;;;30.00;44.60;;;;;;5137005;27;20402;-73
2022/08/02 08:13:50;;;;;;;6.88;1.92;;;30.10;44.00;;;;;;5085290;27;20082;-73
2022/08/02 08:16:16;;;;;;;5.47;2.22;;;30.10;44.30;;;;;;5136425;27;20035;-72
2022/08/02 08:18:42;;;;;;;5.22;2.00;;;30.20;43.80;;;;;;5136506;27;20105;-72
2022/08/02 08:21:08;;;;;;;6.60;2.30;;;30.30;43.10;;;;;;5118969;27;20073;-72
2022/08/02 08:23:35;;;;;;;4.95;1.50;;;30.50;43.40;;;;;;5136670;27;20083;-73
2022/08/02 08:26:01;;;;;;;5.30;2.10;;;30.70;43.10;;;;;;5136844;27;20113;-73
2022/08/02 08:28:27;;;;;;;5.07;2.20;;;30.90;42.40;;;;;;5136611;27;20051;-73
2022/08/02 08:30:53;;;;;;;5.82;2.13;;;30.90;42.70;;;;;;5118614;27;20390;-73
2022/08/02 08:33:18;;;;;;;5.72;2.13;;;30.60;42.70;;;;;;5118218;27;20050;-73
2022/08/02 08:35:44;;;;;;;4.50;1.85;;;30.00;43.10;;;;;;5136955;27;20466;-73
2022/08/02 08:38:10;;;;;;;3.85;1.75;;;29.40;43.50;;;;;;5118359;27;20043;-73
2022/08/02 08:40:36;;;;;;;7.40;1.98;;;29.00;44.30;;;;;;5136457;27;20485;-73
2022/08/02 08:43:02;;;;;;;4.00;1.70;;;28.50;44.60;;;;;;5136497;27;20043;-73
2022/08/02 08:45:28;;;;;;;6.03;2.35;;;28.20;45.50;;;;;;5136118;27;20084;-73
2022/08/02 08:47:59;;;;;;;4.78;1.88;;;;;;;;;;5135956;27;20124;-73
2022/08/02 08:50:25;;;;;;;3.53;1.52;;;27.80;46.80;;;;;;5136151;27;20047;-73
2022/08/02 08:53:06;;;;;;;8.80;2.00;;;27.60;47.40;;;;;;5136252;27;20039;-73
2022/08/02 08:55:34;;;;;;;5.68;1.92;;;27.50;48.60;;;;;;5135895;27;20095;-73
2022/08/02 08:58:02;;;;;;;5.78;2.05;;;27.10;48.80;;;;;;5136196;27;20039;-73
2022/08/02 09:00:32;;;;;;;5.97;2.00;;;27.20;49.20;;;;;;5117854;27;20059;-73
2022/08/02 09:03:00;;;;;;;6.75;2.10;;;27.20;50.00;;;;;;5136297;27;20078;-73
2022/08/02 09:05:26;;;;;;;5.03;2.08;;;27.10;50.00;;;;;;5135773;27;20054;-73
2022/08/02 09:07:52;;;;;;;8.30;2.00;;;27.00;50.50;;;;;;5135983;27;20039;-73
2022/08/02 09:10:36;;;;;;;6.47;1.90;;;26.90;51.10;;;;;;5135960;27;20043;-73
2022/08/02 09:13:08;;;;;;;5.55;1.88;;;26.90;51.70;;;;;;5136044;27;20082;-73
2022/08/02 09:15:34;;;;;;;6.15;1.85;;;;;;;;;;5135678;27;20043;-73
2022/08/02 09:18:02;;;;;;;6.20;2.13;;;;;;;;;;5135750;27;20394;-73
2022/08/02 09:20:28;;;;;;;4.88;2.13;;;;;;;;;;5135588;27;20054;-74
2022/08/02 09:23:07;;;;;;;7.32;2.15;;;;;;;;;;5135818;27;20077;-73
2022/08/02 09:25:33;;;;;;;5.27;2.07;;;;;;;;;;5135428;27;20050;-73
2022/08/02 09:27:59;;;;;;;6.40;2.60;;;26.30;52.80;;;;;;5135630;27;20041;-73
2022/08/02 09:30:28;;;;;;;9.50;3.13;;;26.20;52.90;;;;;;5134827;27;20122;-74
2022/08/02 09:32:53;;;;;;;9.80;2.77;;;26.20;53.50;;;;;;5135831;27;20081;-73
2022/08/02 09:35:33;;;;;;;8.23;2.63;;;26.10;54.40;;;;;;5117223;27;20082;-73
2022/08/02 09:38:13;;;;;;;6.53;2.60;;;26.10;55.60;;;;;;5135271;27;20039;-73
2022/08/02 09:40:40;;;;;;;10.07;3.13;;;26.10;55.90;;;;;;5135113;27;20050;-73
2022/08/02 09:43:07;;;;;;;9.67;3.97;;;26.10;55.70;;;;;;5135339;27;20096;-73
2022/08/02 09:45:34;;;;;;;9.80;3.03;;;26.00;57.30;;;;;;5099954;27;20364;-73
2022/08/02 09:48:07;;;;;;;6.63;3.10;;;26.00;57.50;;;;;;5135140;27;20043;-73
2022/08/02 09:50:38;;;;;;;10.30;3.23;;;26.10;59.10;;;;;;5135217;27;20059;-73
2022/08/02 09:53:04;;;;;;;8.53;3.00;;;26.00;59.50;;;;;;5117090;27;20469;-73
2022/08/02 09:55:29;;;;;;;7.73;3.43;;;26.10;60.40;;;;;;5134784;27;20053;-73
2022/08/02 09:57:55;;;;;;;7.03;2.57;;;26.00;61.00;;;;;;5135131;27;20035;-73
2022/08/02 10:00:21;;;;;;;6.43;3.03;;;26.10;61.10;;;;;;5134866;27;20047;-73
2022/08/02 10:03:10;;;;;;;5.30;2.80;;;26.10;62.00;;;;;;5134610;27;20058;-73
2022/08/02 10:05:51;;;;;;;5.53;2.90;;;26.10;63.30;;;;;;5116412;27;20086;-73
2022/08/02 10:08:17;;;;;;;6.53;3.10;;;26.20;64.60;;;;;;5134496;27;20469;-73
2022/08/02 10:10:43;;;;;;;7.03;2.80;;;26.30;63.90;;;;;;5134572;27;20082;-73
2022/08/02 10:13:09;;;;;;;9.43;3.13;;;26.40;64.30;;;;;;5134313;27;20125;-73
2022/08/02 10:15:36;;;;;;;8.63;3.03;;;26.50;64.10;;;;;;5134534;27;20039;-73
2022/08/02 10:18:04;;;;;;;6.97;3.33;;;26.50;64.20;;;;;;5134405;27;20055;-73
2022/08/02 10:20:40;;;;;;;8.50;3.67;;;26.50;64.10;;;;;;5134414;27;20039;-74
2022/08/02 10:23:09;;;;;;;7.53;3.80;;;26.50;64.10;;;;;;5134873;27;20051;-73
2022/08/02 10:25:36;;;;;;;9.83;4.17;;;26.50;64.20;;;;;;5134284;27;20047;-73
2022/08/02 10:28:04;;;;;;;7.93;3.63;;;26.50;65.50;;;;;;5134337;27;20047;-73
2022/08/02 10:30:30;;;;;;;9.43;3.63;;;26.60;65.80;;;;;;5134279;27;20043;-74
2022/08/02 10:33:00;;;;;;;6.10;3.50;;;26.70;64.90;;;;;;5134395;27;20146;-73
2022/08/02 10:35:25;;;;;;;6.90;3.60;;;26.70;62.30;;;;;;5134377;27;20077;-73
2022/08/02 10:38:00;;;;;;;8.53;4.10;;;26.60;61.90;;;;;;5133973;27;20039;-73
2022/08/02 10:40:46;;;;;;;6.33;3.97;;;26.60;62.20;;;;;;5116415;27;20047;-73
2022/08/02 10:43:29;;;;;;;6.17;3.70;;;26.60;63.30;;;;;;5134138;27;20101;-73
2022/08/02 10:46:35;;;;;;;6.70;4.47;;;26.60;63.80;;;;;;5134158;27;20147;-73
2022/08/02 10:49:18;;;;;;;7.10;3.30;;;26.70;65.20;;;;;;5133363;27;20130;-72
2022/08/02 10:52:04;;;;;;;7.27;3.27;;;26.80;65.50;;;;;;5134047;27;20100;-73
2022/08/02 10:54:30;;;;;;;9.20;4.50;;;26.80;67.20;;;;;;5134148;27;20047;-73
2022/08/02 10:56:57;;;;;;;8.57;4.20;;;26.80;67.50;;;;;;5133758;27;20111;-73
2022/08/02 10:59:31;;;;;;;7.10;4.13;;;26.70;68.10;;;;;;5134238;27;20054;-73
2022/08/02 11:02:01;;;;;;;;;;;26.70;69.90;;;;;;5134161;27;20047;-73
2022/08/02 11:04:35;;;;;;;7.30;4.80;;;26.60;71.30;;;;;;5115823;28;19919;-73
2022/08/02 11:07:12;;;;;;;9.07;4.60;;;26.60;73.60;;;;;;5134026;28;20053;-73
2022/08/02 11:09:39;;;;;;;7.17;3.60;;;26.60;75.70;;;;;;5115737;28;20075;-73
2022/08/02 11:12:10;;;;;;;9.23;3.53;;;26.70;75.60;;;;;;5133863;28;20195;-73
2022/08/02 11:14:38;;;;;;;6.60;3.77;;;26.70;73.70;;;;;;5133683;28;20035;-74
2022/08/02 11:17:15;;;;;;;7.50;3.80;;;26.70;72.50;;;;;;5133790;28;20142;-73
2022/08/02 11:20:11;;;;;;;5.23;3.50;;;26.60;72.30;;;;;;5133724;28;20047;-73
2022/08/02 11:22:38;;;;;;;7.40;5.17;;;26.50;74.30;;;;;;5115230;28;20471;-74
2022/08/02 11:25:25;;;;;;;11.20;6.53;;;26.40;76.50;;;;;;5133822;28;20047;-72
2022/08/02 11:28:07;;;;;;;9.93;6.53;;;26.50;78.10;;;;;;5115489;28;20138;-73
2022/08/02 11:30:33;;;;;;;9.30;6.07;;;26.50;78.70;;;;;;5133907;28;20047;-73
2022/08/02 11:32:59;;;;;;;7.97;6.30;;;26.50;79.30;;;;;;5115418;28;20384;-73
2022/08/02 11:35:36;;;;;;;11.17;7.03;;;26.50;81.30;;;;;;5133757;28;20487;-73
2022/08/02 11:38:19;;;;;;;12.07;7.53;;;26.50;83.20;;;;;;5133753;28;20078;-72
2022/08/02 11:40:46;;;;;;;11.40;7.20;;;26.50;82.00;;;;;;5133620;28;20146;-73
2022/08/02 11:43:20;;;;;;;9.90;7.30;;;26.50;82.50;;;;;;5133847;28;20134;-73
2022/08/02 11:45:47;;;;;;;9.98;6.75;;;26.60;82.50;;;;;;5133378;28;20135;-73
2022/08/02 11:48:13;;;;;;;9.83;6.07;;;26.60;81.50;;;;;;5115431;28;20051;-73
2022/08/02 11:50:39;;;;;;;9.17;7.20;;;26.60;81.10;;;;;;5115474;28;20039;-73
2022/08/02 11:53:15;;;;;;;9.60;6.13;;;26.60;80.90;;;;;;5133471;27;20078;-73
2022/08/02 11:55:40;;;;;;;10.33;6.93;;;26.60;80.80;;;;;;5137145;27;20039;-73
2022/08/02 11:58:10;;;;;;;12.60;6.87;;;26.60;80.80;;;;;;5137613;27;20042;-73
2022/08/02 12:00:36;;;;;;;10.33;7.63;;;26.50;80.50;;;;;;5137275;27;20047;-73
2022/08/02 12:03:02;;;;;;;9.70;6.70;;;26.50;81.10;;;;;;5137034;27;20090;-73
2022/08/02 12:05:28;;;;;;;10.80;7.23;;;26.50;82.70;;;;;;5137258;27;20078;-73
2022/08/02 12:07:54;;;;;;;10.13;7.13;;;26.60;83.50;;;;;;5118639;27;20479;-73
2022/08/02 12:10:22;;;;;;;12.97;7.70;;;26.60;81.20;;;;;;5137133;27;20072;-73
2022/08/02 12:12:55;;;;;;;9.03;6.10;;;26.60;81.60;;;;;;5136965;27;20047;-74
2022/08/02 12:15:36;;;;;;;13.23;8.43;;;26.60;83.80;;;;;;5136978;27;20047;-73
2022/08/02 12:20:51;;;;;;;8.77;6.90;;;26.50;82.00;;;;;;5136689;27;20050;-74
2022/08/02 12:23:17;;;;;;;13.40;8.93;;;26.40;82.40;;;;;;5136883;27;20051;-74
2022/08/02 12:25:43;;;;;;;10.83;7.50;;;26.40;83.30;;;;;;5136856;27;20047;-76
2022/08/02 12:28:16;;;;;;;12.47;8.60;;;26.30;83.40;;;;;;5136676;27;20479;-74
2022/08/02 12:30:51;;;;;;;14.23;8.77;;;26.20;83.80;;;;;;5136821;27;20046;-74
2022/08/02 12:33:17;;;;;;;14.40;8.90;;;26.10;85.40;;;;;;5136672;27;20043;-74
2022/08/02 12:35:43;;;;;;;10.13;8.20;;;26.10;86.20;;;;;;5118632;27;20043;-74
2022/08/02 12:38:10;;;;;;;13.77;9.17;;;25.90;87.40;;;;;;5136248;27;20447;-74
2022/08/02 12:40:35;;;;;;;13.10;8.83;;;25.80;87.90;;;;;;5136567;27;20535;-74
2022/08/02 12:43:04;;;;;;;12.43;8.67;;;25.90;89.60;;;;;;5118241;27;20157;-74
2022/08/02 12:45:45;;;;;;;16.33;9.57;;;25.90;87.90;;;;;;5136575;27;20039;-73
2022/08/02 12:48:11;;;;;;;10.50;8.23;;;25.80;88.90;;;;;;5136416;27;20046;-73
2022/08/02 12:50:37;;;;;;;13.00;9.77;;;25.80;90.10;;;;;;5136354;27;20043;-73
2022/08/02 12:53:11;;;;;;;15.20;10.50;;;25.70;90.30;;;;;;5136149;27;20047;-73
2022/08/02 12:55:50;;;;;;;14.18;10.00;;;25.70;90.70;;;;;;5136363;27;20047;-73
2022/08/02 12:58:16;;;;;;;15.00;10.20;;;25.70;91.50;;;;;;5136219;27;20035;-73
2022/08/02 13:00:42;;;;;;;18.93;10.23;;;25.70;91.90;;;;;;5136202;27;20043;-73